createdAt,value
2023-08-08T00:00:19.392Z,12.92
2023-08-08T00:10:25.126Z,12.80
2023-08-08T00:20:30.991Z,12.80
2023-08-08T00:30:36.991Z,12.70
2023-08-08T00:40:42.578Z,12.56
2023-08-08T00:50:50.349Z,12.42
2023-08-08T01:00:58.865Z,12.27
2023-08-08T01:11:05.526Z,12.11
2023-08-08T01:21:12.386Z,11.93
2023-08-08T01:31:18.430Z,11.81
2023-08-08T01:41:25.673Z,11.71
2023-08-08T01:51:31.375Z,11.60
2023-08-08T02:01:37.022Z,11.48
2023-08-08T02:11:42.657Z,11.37
2023-08-08T02:21:48.240Z,11.32
2023-08-08T02:31:53.942Z,11.25
2023-08-08T02:41:59.956Z,11.19
2023-08-08T02:52:06.749Z,11.20
2023-08-08T03:02:12.450Z,11.35
2023-08-08T03:12:19.416Z,11.60
2023-08-08T03:22:24.990Z,11.79
2023-08-08T03:32:32.111Z,11.97
2023-08-08T03:42:38.028Z,12.16
2023-08-08T03:52:43.671Z,12.37
2023-08-08T04:02:49.558Z,12.62
2023-08-08T04:12:55.205Z,13.04
2023-08-08T04:23:00.766Z,13.52
2023-08-08T04:33:06.919Z,13.63
2023-08-08T04:43:12.582Z,13.97
2023-08-08T04:53:18.219Z,14.48
2023-08-08T05:03:23.880Z,15.19
2023-08-08T05:13:29.600Z,16.41
2023-08-08T05:23:35.284Z,23.54
2023-08-08T05:33:40.999Z,27.67
2023-08-08T05:43:46.633Z,25.89
2023-08-08T05:53:52.273Z,27.08
2023-08-08T06:03:59.356Z,28.46
2023-08-08T06:14:04.991Z,28.57
2023-08-08T06:24:10.713Z,25.00
2023-08-08T06:34:16.449Z,-128.00
2023-08-08T06:44:24.851Z,-128.00
2023-08-08T06:54:30.542Z,-128.00
2023-08-08T07:04:36.175Z,-128.00
